Time;durP1;ratioP1;P1;durP2;ratioP2;P2;SDS_P1;SDS_P2;PMS_P1;PMS_P2;Temp;Humidity;BMP_temperature;BMP_pressure;BME280_temperature;BME280_humidity;BME280_pressure;Samples;Min_cycle;Max_cycle;Signal;HPM_P1;HPM_P2
2021/08/30 00:01:52;;;;;;;17.00;9.50;;;;;;;18.82;84.45;99577.03;126352;1099;104185;-78
2021/08/30 00:04:23;;;;;;;19.17;9.60;;;;;;;18.78;84.39;99576.20;126234;1099;104224;-78
2021/08/30 00:06:54;;;;;;;17.53;9.80;;;;;;;18.76;84.33;99585.08;126369;1096;104207;-79
2021/08/30 00:09:25;;;;;;;20.20;9.57;;;;;;;18.74;83.79;99586.89;126363;1096;104127;-78
2021/08/30 00:11:55;;;;;;;15.40;8.50;;;;;;;18.72;83.90;99586.04;126371;1096;104139;-78
2021/08/30 00:14:27;;;;;;;17.87;8.90;;;;;;;18.71;83.94;99582.48;126318;1096;104312;-78
2021/08/30 00:16:57;;;;;;;18.63;9.60;;;;;;;18.70;83.94;99572.77;126323;1099;104698;-80
2021/08/30 00:19:32;;;;;;;18.73;10.17;;;;;;;18.69;83.93;99589.60;126349;1099;104185;-77
2021/08/30 00:22:04;;;;;;;18.13;9.10;;;;;;;18.66;84.62;99584.32;126318;1099;104277;-76
2021/08/30 00:24:37;;;;;;;16.10;9.23;;;;;;;18.64;84.49;99581.69;126336;1099;104152;-77
2021/08/30 00:27:08;;;;;;;20.17;10.00;;;;;;;18.60;84.46;99574.64;126356;1099;104242;-79
2021/08/30 00:29:38;;;;;;;18.73;9.57;;;;;;;18.59;84.94;99579.97;126316;1099;104178;-78
2021/08/30 00:32:09;;;;;;;15.23;9.37;;;;;;;18.57;84.28;99582.64;126339;1099;104137;-76
2021/08/30 00:34:40;;;;;;;19.47;9.43;;;;;;;18.53;83.94;99586.25;126226;1099;105482;-78
2021/08/30 00:37:11;;;;;;;18.40;9.77;;;;;;;18.53;84.02;99585.34;126328;1099;104302;-79
2021/08/30 00:39:42;;;;;;;21.30;10.33;;;;;;;18.51;84.73;99585.37;126348;1099;104222;-78
2021/08/30 00:42:13;;;;;;;17.13;8.90;;;;;;;18.49;84.85;99592.48;126323;1099;104225;-78
2021/08/30 00:44:44;;;;;;;19.97;10.40;;;;;;;18.46;84.32;99593.39;126363;1099;104165;-78
2021/08/30 00:47:15;;;;;;;17.77;9.60;;;;;;;18.45;85.02;99593.41;126259;1099;110635;-77
2021/08/30 00:49:47;;;;;;;17.83;9.57;;;;;;;18.41;84.55;99594.36;126290;1099;104193;-79
2021/08/30 00:52:18;;;;;;;17.93;9.83;;;;;;;18.37;85.06;99592.61;126300;1099;104310;-78
2021/08/30 00:54:49;;;;;;;16.77;9.70;;;;;;;18.36;84.39;99588.22;126230;1099;104172;-79
2021/08/30 00:57:21;;;;;;;17.87;9.87;;;;;;;18.36;84.79;99596.19;126279;1099;104194;-77
2021/08/30 00:59:52;;;;;;;20.70;10.33;;;;;;;18.33;84.57;99589.99;126366;1099;104137;-79
2021/08/30 01:02:22;;;;;;;23.03;10.60;;;;;;;18.32;84.88;99590.91;126366;1099;104156;-79
2021/08/30 01:04:53;;;;;;;16.83;9.60;;;;;;;18.32;84.90;99593.56;126353;1099;104340;-78
2021/08/30 01:07:33;;;;;;;19.57;10.37;;;;;;;18.32;85.02;99604.19;126268;1098;104169;-79
2021/08/30 01:10:11;;;;;;;18.40;10.17;;;;;;;18.31;84.67;99599.77;126358;1096;104136;-78
2021/08/30 01:12:49;;;;;;;19.10;10.53;;;;;;;18.27;84.56;99587.40;126368;1099;104188;-78
2021/08/30 01:15:24;;;;;;;17.50;9.67;;;;;;;18.28;84.72;99594.48;126355;1099;104576;-79
2021/08/30 01:17:58;;;;;;;21.73;10.03;;;;;;;18.26;84.63;99587.41;126310;1099;118649;-79
2021/08/30 01:20:35;;;;;;;17.90;9.73;;;;;;;18.25;84.94;99598.95;126325;1099;104133;-78
2021/08/30 01:23:07;;;;;;;20.50;10.73;;;;;;;18.22;84.86;99598.98;126307;1099;104159;-78
2021/08/30 01:25:38;;;;;;;17.40;10.20;;;;;;;18.22;84.68;99598.98;126345;1099;104220;-78
2021/08/30 01:28:09;;;;;;;18.63;11.13;;;;;;;18.21;84.97;99591.91;126308;1099;104136;-78
2021/08/30 01:30:44;;;;;;;19.20;10.85;;;;;;;18.19;84.95;99591.92;126283;1099;104243;-77
2021/08/30 01:33:17;;;;;;;20.20;11.20;;;;;;;18.18;85.01;99591.94;126337;1099;104294;-78
2021/08/30 01:35:49;;;;;;;19.70;10.43;;;;;;;18.15;85.29;99603.45;126359;1099;104219;-77
2021/08/30 01:38:20;;;;;;;20.33;10.90;;;;;;;18.14;85.62;99599.05;126292;1096;104165;-78
2021/08/30 01:40:52;;;;;;;19.60;10.97;;;;;;;18.09;85.77;99596.45;126366;1096;104275;-79
2021/08/30 01:43:24;;;;;;;19.13;11.10;;;;;;;18.08;85.78;99605.30;126325;1096;104274;-78
2021/08/30 01:45:56;;;;;;;19.47;11.37;;;;;;;18.06;85.18;99608.84;126324;1096;104164;-78
2021/08/30 01:48:27;;;;;;;20.50;11.13;;;;;;;18.05;85.78;99612.41;126318;1099;104242;-78
2021/08/30 01:50:58;;;;;;;18.33;10.17;;;;;;;18.03;85.91;99619.48;126364;1099;104146;-78
2021/08/30 01:53:29;;;;;;;19.50;11.07;;;;;;;18.02;85.61;99623.06;126327;1099;104204;-77
2021/08/30 01:56:04;;;;;;;22.87;11.40;;;;;;;18.01;85.88;99621.28;126382;1096;104220;-78
2021/08/30 02:01:21;;;;;;;19.90;11.37;;;;;;;17.94;85.38;99616.03;126396;1096;104271;-78
2021/08/30 02:03:52;;;;;;;18.47;10.07;;;;;;;17.92;85.98;99609.86;126366;1096;104192;-78
2021/08/30 02:06:23;;;;;;;21.47;11.27;;;;;;;17.89;86.03;99612.55;126324;1099;104235;-78
2021/08/30 02:08:55;;;;;;;23.47;12.03;;;;;;;17.87;86.51;99609.00;126278;1098;104156;-78
2021/08/30 02:11:31;;;;;;;20.00;11.13;;;;;;;17.86;86.11;99609.02;126297;1099;104258;-77
2021/08/30 02:14:07;;;;;;;19.97;11.33;;;;;;;17.84;86.24;99597.51;126339;1099;104204;-78
2021/08/30 02:16:38;;;;;;;22.03;11.47;;;;;;;17.81;85.99;99597.53;126318;1099;104159;-79
2021/08/30 02:19:18;;;;;;;22.60;12.17;;;;;;;17.82;87.13;99609.92;126318;1096;104128;-78
2021/08/30 02:21:54;;;;;;;20.93;11.63;;;;;;;17.77;86.44;99607.30;126346;1096;104213;-80
2021/08/30 02:24:33;;;;;;;22.57;12.03;;;;;;;17.75;86.53;99604.66;126293;1096;104165;-78
2021/08/30 02:27:12;;;;;;;20.40;11.53;;;;;;;17.75;87.14;99603.79;126330;1096;104159;-78
2021/08/30 02:29:48;;;;;;;18.40;11.67;;;;;;;17.74;86.70;99602.02;126339;1099;110997;-79
2021/08/30 02:32:20;;;;;;;25.25;12.45;;;;;;;17.75;86.99;99603.79;126359;1099;104143;-77
2021/08/30 02:34:55;;;;;;;20.77;12.53;;;;;;;17.71;86.98;99607.34;126364;1099;104181;-80
2021/08/30 02:37:25;;;;;;;;;;;;;;;17.69;88.29;99603.84;126310;1099;104242;-78
2021/08/30 02:39:58;;;;;;;21.30;12.20;;;;;;;17.68;87.13;99602.06;126324;1096;103982;-78
2021/08/30 02:42:32;;;;;;;21.90;12.57;;;;;;;17.67;87.51;99597.64;126340;1096;104213;-77
2021/08/30 02:45:07;;;;;;;19.80;11.93;;;;;;;17.65;87.10;99607.39;126351;1096;104143;-78
2021/08/30 02:47:39;;;;;;;20.00;12.03;;;;;;;17.66;87.45;99603.86;126317;1096;104241;-79
2021/08/30 02:50:12;;;;;;;21.80;11.70;;;;;;;17.66;87.02;99598.55;126361;1098;107063;-78
2021/08/30 02:52:44;;;;;;;21.03;11.83;;;;;;;17.67;87.06;99594.98;126370;1099;104593;-78
2021/08/30 02:55:16;;;;;;;20.60;12.17;;;;;;;17.68;87.02;99602.06;126334;1099;104239;-79
2021/08/30 02:57:49;;;;;;;21.10;12.17;;;;;;;17.68;87.08;99602.06;126334;1099;104171;-78
2021/08/30 03:00:21;;;;;;;20.30;12.77;;;;;;;17.67;87.04;99610.91;126358;1096;104235;-78
2021/08/30 03:02:52;;;;;;;22.73;11.53;;;;;;;17.67;87.12;99617.11;126349;1096;104175;-78
2021/08/30 03:05:25;;;;;;;20.93;12.20;;;;;;;17.69;86.86;99614.45;126348;1096;104149;-79
2021/08/30 03:07:56;;;;;;;24.80;12.67;;;;;;;17.69;87.34;99620.63;126325;1096;104152;-79
2021/08/30 03:10:29;;;;;;;20.40;12.93;;;;;;;17.70;87.17;99621.50;126320;1099;104219;-79
2021/08/30 03:13:04;;;;;;;23.27;13.27;;;;;;;17.74;86.87;99625.90;126309;1099;104136;-79
2021/08/30 03:15:36;;;;;;;21.00;12.00;;;;;;;17.76;87.16;99622.35;126324;1099;104178;-79
2021/08/30 03:18:12;;;;;;;21.23;11.97;;;;;;;17.82;87.16;99624.05;126337;1099;104259;-78
2021/08/30 03:20:45;;;;;;;20.37;12.13;;;;;;;17.87;86.74;99619.61;126268;1099;111593;-78
2021/08/30 03:23:17;;;;;;;23.33;12.50;;;;;;;17.90;87.11;99619.63;126349;1099;104271;-79
2021/08/30 03:25:50;;;;;;;23.70;13.63;;;;;;;17.93;86.97;99619.56;126340;1099;104172;-79
2021/08/30 03:28:25;;;;;;;20.77;12.43;;;;;;;17.98;86.79;99624.84;126340;1099;104211;-78
2021/08/30 03:30:57;;;;;;;21.57;13.00;;;;;;;18.00;86.85;99627.48;126312;1098;104134;-79
2021/08/30 03:33:29;;;;;;;20.67;11.90;;;;;;;17.99;86.93;99618.64;126266;1099;104139;-78
2021/08/30 03:36:03;;;;;;;21.67;12.93;;;;;;;17.98;86.83;99629.27;126352;1099;104213;-78
2021/08/30 03:38:34;;;;;;;23.60;12.50;;;;;;;17.93;87.12;99627.53;126343;1099;104278;-78
2021/08/30 03:41:05;;;;;;;22.33;12.43;;;;;;;17.93;86.96;99629.31;126268;1096;104211;-78
2021/08/30 03:43:38;;;;;;;22.63;12.53;;;;;;;17.92;86.77;99644.37;126354;1096;104273;-79
2021/08/30 03:46:09;;;;;;;22.47;13.20;;;;;;;17.92;86.78;99647.02;126323;1096;104224;-77
2021/08/30 03:48:40;;;;;;;21.90;12.77;;;;;;;17.92;87.23;99646.12;126352;1096;104268;-77
2021/08/30 03:51:11;;;;;;;23.67;13.23;;;;;;;17.91;87.35;99647.03;126267;1096;104162;-78
2021/08/30 03:53:44;;;;;;;22.87;12.10;;;;;;;17.89;87.00;99652.36;126322;1099;104293;-78
2021/08/30 03:56:16;;;;;;;23.03;12.87;;;;;;;17.93;87.03;99654.06;126285;1099;104201;-77
2021/08/30 03:58:49;;;;;;;22.40;12.47;;;;;;;18.00;87.35;99667.29;126326;1099;104195;-78
2021/08/30 04:01:24;;;;;;;23.43;12.50;;;;;;;18.06;87.04;99665.49;126246;1099;105709;-78
2021/08/30 04:03:58;;;;;;;23.27;12.60;;;;;;;18.16;86.95;99670.73;126361;1096;104233;-78
2021/08/30 04:06:32;;;;;;;21.03;11.47;;;;;;;18.24;87.24;99669.75;126329;1096;104134;-78
2021/08/30 04:09:04;;;;;;;21.10;12.03;;;;;;;18.31;86.98;99667.94;126276;1099;104318;-79
2021/08/30 04:11:35;;;;;;;20.63;11.87;;;;;;;18.40;86.49;99654.58;126300;1097;104175;-79
2021/08/30 04:14:07;;;;;;;20.23;11.43;;;;;;;18.50;87.15;99666.84;126371;1098;104245;-79
2021/08/30 04:16:37;;;;;;;18.77;10.83;;;;;;;18.60;87.01;99667.63;126365;1097;104245;-78
2021/08/30 04:19:10;;;;;;;18.95;10.45;;;;;;;18.71;87.12;99671.95;126300;1099;104178;-79
2021/08/30 04:21:43;;;;;;;20.80;10.03;;;;;;;18.77;87.24;99666.58;126307;1096;104309;-78
2021/08/30 04:24:16;;;;;;;21.87;10.97;;;;;;;18.82;86.84;99672.71;126355;1096;104210;-78
2021/08/30 04:26:46;;;;;;;18.67;10.53;;;;;;;18.88;86.97;99683.31;126334;1096;104245;-78
2021/08/30 04:29:18;;;;;;;18.87;10.37;;;;;;;18.90;87.00;99678.88;126349;1096;104220;-78
2021/08/30 04:31:49;;;;;;;18.67;10.33;;;;;;;18.89;86.84;99679.77;126215;1099;104198;-78
2021/08/30 04:34:22;;;;;;;20.43;11.70;;;;;;;18.87;86.28;99689.55;126329;1099;104188;-78
2021/08/30 04:36:53;;;;;;;22.00;11.73;;;;;;;18.84;86.86;99682.47;126348;1099;104303;-79
2021/08/30 04:39:23;;;;;;;18.53;10.90;;;;;;;18.85;86.80;99692.22;126339;1099;104137;-78
2021/08/30 04:41:54;;;;;;;18.67;10.93;;;;;;;18.85;86.55;99696.63;126285;1096;104155;-77
2021/08/30 04:44:26;;;;;;;18.53;11.03;;;;;;;18.85;86.41;99697.53;126261;1099;104357;-80
2021/08/30 04:46:57;;;;;;;22.80;11.43;;;;;;;18.86;86.80;99701.06;126341;1096;104531;-80
2021/08/30 04:49:28;;;;;;;20.67;12.07;;;;;;;18.83;86.71;99701.93;126343;1096;104197;-78
2021/08/30 04:51:59;;;;;;;21.23;11.30;;;;;;;18.81;86.06;99708.18;126284;1099;104179;-78
2021/08/30 04:54:30;;;;;;;21.00;11.50;;;;;;;18.79;86.23;99707.30;126358;1096;104144;-79
2021/08/30 04:57:01;;;;;;;20.67;12.10;;;;;;;18.79;86.65;99713.52;126300;1099;104140;-78
2021/08/30 04:59:31;;;;;;;18.20;10.93;;;;;;;18.80;86.54;99709.94;126355;1099;104204;-78
2021/08/30 05:02:02;;;;;;;19.67;10.77;;;;;;;18.86;86.59;99717.01;126284;1096;104194;-78
2021/08/30 05:04:34;;;;;;;21.87;12.10;;;;;;;18.90;86.69;99712.53;126390;1096;104204;-79
2021/08/30 05:07:05;;;;;;;18.83;10.80;;;;;;;18.93;86.03;99709.84;126214;1099;104220;-79
2021/08/30 05:09:36;;;;;;;17.83;10.33;;;;;;;18.96;86.58;99720.44;125227;1098;104408;-79
2021/08/30 05:12:08;;;;;;;22.67;11.17;;;;;;;18.95;85.76;99708.94;125241;1099;104243;-78
2021/08/30 05:14:38;;;;;;;18.87;10.77;;;;;;;18.97;85.70;99707.12;125250;1100;104197;-78
2021/08/30 05:17:12;;;;;;;19.17;10.53;;;;;;;19.01;86.36;99703.55;125275;1099;104296;-78
2021/08/30 05:19:44;;;;;;;18.30;11.37;;;;;;;19.01;85.57;99699.98;125308;1099;104230;-79
2021/08/30 05:22:17;;;;;;;18.40;10.13;;;;;;;18.99;85.72;99700.01;125180;1099;105906;-78
2021/08/30 05:24:48;;;;;;;18.83;10.30;;;;;;;18.97;86.14;99700.94;125367;1099;104836;-80
2021/08/30 05:27:22;;;;;;;16.40;9.33;;;;;;;18.96;85.56;99694.72;125242;1099;104134;-78
2021/08/30 05:29:54;;;;;;;16.90;9.23;;;;;;;18.97;85.62;99695.63;125248;1099;104379;-79
2021/08/30 05:32:25;;;;;;;17.53;9.87;;;;;;;19.01;85.69;99700.89;125159;1099;104241;-78
2021/08/30 05:34:55;;;;;;;18.00;9.70;;;;;;;19.06;85.97;99699.94;125272;1102;104159;-78
2021/08/30 05:37:26;;;;;;;14.53;8.67;;;;;;;19.10;85.27;99702.54;125246;1099;104373;-78
2021/08/30 05:39:57;;;;;;;16.63;9.90;;;;;;;19.14;85.44;99708.73;126100;1099;104249;-78
2021/08/30 05:42:31;;;;;;;17.33;9.40;;;;;;;19.14;85.23;99706.94;126305;1099;104220;-78
2021/08/30 05:45:02;;;;;;;18.50;9.33;;;;;;;19.16;85.61;99718.42;126326;1099;104149;-78
2021/08/30 05:47:34;;;;;;;16.93;8.87;;;;;;;19.18;85.77;99716.65;126288;1099;104146;-77
2021/08/30 05:50:05;;;;;;;17.80;9.00;;;;;;;19.26;85.37;99719.22;126333;1097;104198;-79
2021/08/30 05:52:50;;;;;;;16.17;9.20;;;;;;;19.28;84.60;99712.09;126168;1099;104171;-79
2021/08/30 05:55:26;;;;;;;16.03;8.73;;;;;;;19.29;85.16;99716.52;126339;1099;104255;-78
2021/08/30 05:58:00;;;;;;;18.70;8.87;;;;;;;19.36;85.53;99718.18;126368;1098;104271;-79
2021/08/30 06:00:33;;;;;;;17.27;8.43;;;;;;;19.47;84.45;99723.37;126320;1099;104322;-78
2021/08/30 06:03:06;;;;;;;12.83;7.60;;;;;;;19.56;84.56;99725.03;126235;1099;105515;-79
2021/08/30 06:05:37;;;;;;;14.03;7.80;;;;;;;19.68;84.40;99718.64;126283;1099;104303;-77
2021/08/30 06:08:08;;;;;;;14.30;7.03;;;;;;;19.81;85.10;99727.39;126313;1099;104194;-78
2021/08/30 06:10:40;;;;;;;14.73;7.47;;;;;;;19.88;84.30;99723.72;126324;1099;104935;-78
2021/08/30 06:13:11;;;;;;;14.63;7.23;;;;;;;19.95;84.17;99709.42;126280;1099;104344;-80
2021/08/30 06:15:44;;;;;;;12.77;7.17;;;;;;;20.02;84.11;99711.06;126365;1099;104322;-78
2021/08/30 06:18:25;;;;;;;13.47;7.03;;;;;;;20.10;83.39;99709.19;126304;1099;104618;-77
2021/08/30 06:20:56;;;;;;;13.57;6.60;;;;;;;20.24;83.59;99716.95;126347;1099;104153;-77
2021/08/30 06:23:29;;;;;;;13.50;7.53;;;;;;;20.39;83.12;99731.78;126284;1096;104134;-77
2021/08/30 06:26:00;;;;;;;12.40;6.77;;;;;;;20.51;82.75;99730.71;126310;1099;104233;-78
2021/08/30 06:28:31;;;;;;;12.00;6.10;;;;;;;20.63;82.76;99729.59;126380;1096;104178;-79
2021/08/30 06:31:02;;;;;;;14.20;6.10;;;;;;;20.75;82.49;99734.73;126321;1096;104165;-78
2021/08/30 06:33:33;;;;;;;11.03;5.60;;;;;;;20.85;83.09;99729.23;126329;1096;104249;-78
2021/08/30 06:36:04;;;;;;;12.73;6.73;;;;;;;20.87;81.54;99722.98;126347;1099;104197;-78
2021/08/30 06:38:36;;;;;;;11.60;5.73;;;;;;;20.98;81.08;99730.78;126334;1099;104236;-78
2021/08/30 06:41:06;;;;;;;10.60;5.57;;;;;;;20.98;79.37;99731.65;126355;1099;104160;-78
2021/08/30 06:43:37;;;;;;;8.97;5.70;;;;;;;20.97;79.61;99740.58;126318;1099;104237;-78
2021/08/30 06:46:07;;;;;;;10.33;5.40;;;;;;;20.94;80.29;99747.73;126340;1096;104182;-78
2021/08/30 06:48:40;;;;;;;8.70;5.43;;;;;;;20.97;79.60;99747.67;126352;1096;104171;-78
2021/08/30 06:51:11;;;;;;;8.93;5.23;;;;;;;20.96;78.91;99741.48;126286;1096;104656;-78
2021/08/30 06:53:42;;;;;;;7.70;5.23;;;;;;;20.94;78.74;99739.73;126265;1096;104133;-78
2021/08/30 06:56:13;;;;;;;10.67;5.60;;;;;;;20.98;79.64;99749.45;126303;1099;104162;-79
2021/08/30 06:58:44;;;;;;;8.77;5.30;;;;;;;20.97;79.69;99758.34;126213;1099;104245;-78
2021/08/30 07:01:15;;;;;;;9.80;5.37;;;;;;;20.97;78.59;99753.02;126326;1099;104252;-78
2021/08/30 07:03:46;;;;;;;11.87;5.77;;;;;;;20.97;79.49;99747.67;126229;1097;104134;-79
2021/08/30 07:06:20;;;;;;;12.67;5.50;;;;;;;20.95;78.67;99750.37;126302;1099;104245;-78
2021/08/30 07:08:52;;;;;;;14.07;5.73;;;;;;;20.89;77.63;99752.28;126268;1096;104165;-78
2021/08/30 07:11:23;;;;;;;14.47;5.93;;;;;;;20.83;77.71;99743.50;126368;1096;104152;-77
2021/08/30 07:13:54;;;;;;;14.40;6.10;;;;;;;20.87;78.66;99751.45;126306;1096;104210;-77
2021/08/30 07:16:24;;;;;;;17.30;7.07;;;;;;;20.87;77.45;99754.11;126298;1099;104184;-77
2021/08/30 07:18:56;;;;;;;15.20;5.80;;;;;;;20.88;78.79;99754.08;126317;1098;104143;-78
2021/08/30 07:21:28;;;;;;;10.87;6.07;;;;;;;20.91;78.57;99756.69;126305;1096;104168;-78
2021/08/30 07:23:59;;;;;;;12.10;5.97;;;;;;;20.96;77.44;99752.14;126307;1099;104163;-79
2021/08/30 07:26:29;;;;;;;13.10;6.27;;;;;;;21.01;77.67;99755.59;126342;1099;104185;-79
2021/08/30 07:29:00;;;;;;;12.03;5.73;;;;;;;21.04;77.38;99754.66;126308;1099;104175;-77
2021/08/30 07:31:31;;;;;;;13.53;6.13;;;;;;;21.05;76.75;99752.86;126337;1099;104175;-78
2021/08/30 07:34:02;;;;;;;10.80;6.10;;;;;;;21.11;76.24;99750.95;126250;1099;104270;-78
2021/08/30 07:36:34;;;;;;;15.63;6.33;;;;;;;21.13;76.69;99750.92;126306;1099;104203;-78
2021/08/30 07:39:05;;;;;;;15.13;6.90;;;;;;;21.16;76.12;99764.20;126361;1098;104225;-79
2021/08/30 07:41:37;;;;;;;12.77;6.53;;;;;;;21.18;76.11;99757.94;126348;1099;104191;-77
2021/08/30 07:44:08;;;;;;;9.23;5.63;;;;;;;21.23;76.82;99762.31;126310;1098;104203;-78
2021/08/30 07:46:40;;;;;;;12.77;6.23;;;;;;;21.31;77.16;99758.56;126236;1099;104316;-79
2021/08/30 07:49:11;;;;;;;10.33;6.10;;;;;;;21.35;76.50;99762.94;126305;1099;104147;-78
2021/08/30 07:51:42;;;;;;;10.30;5.27;;;;;;;21.36;75.91;99764.70;126271;1099;104189;-78
2021/08/30 07:54:13;;;;;;;15.37;6.07;;;;;;;21.40;76.62;99757.50;126201;1099;104137;-76
2021/08/30 07:56:44;;;;;;;12.23;5.67;;;;;;;21.47;76.57;99756.48;126329;1099;104165;-78
2021/08/30 07:59:16;;;;;;;14.43;5.73;;;;;;;21.57;75.46;99758.99;126341;1099;104246;-77
2021/08/30 08:01:47;;;;;;;10.93;5.17;;;;;;;21.67;75.58;99757.86;126345;1099;104192;-78
2021/08/30 08:04:18;;;;;;;12.80;6.03;;;;;;;21.75;75.63;99760.36;126289;1099;104265;-77
2021/08/30 08:06:49;;;;;;;13.00;6.23;;;;;;;21.84;75.33;99760.16;126285;1099;104288;-79
2021/08/30 08:09:21;;;;;;;11.60;5.90;;;;;;;22.03;75.75;99773.97;126329;1099;104567;-79
2021/08/30 08:11:52;;;;;;;13.25;6.20;;;;;;;22.17;75.04;99769.17;126301;1099;104229;-78
2021/08/30 08:14:22;;;;;;;12.93;5.87;;;;;;;22.32;75.13;99769.78;126331;1099;104131;-79
2021/08/30 08:16:54;;;;;;;9.17;5.17;;;;;;;22.45;75.17;99768.55;126335;1099;104306;-78
2021/08/30 08:19:25;;;;;;;11.03;5.53;;;;;;;22.62;74.77;99768.12;126310;1099;104142;-79
2021/08/30 08:21:57;;;;;;;12.70;5.70;;;;;;;22.77;74.45;99772.21;126360;1099;104245;-77
2021/08/30 08:24:28;;;;;;;11.17;5.80;;;;;;;22.90;74.25;99778.98;126293;1098;104140;-78
2021/08/30 08:27:00;;;;;;;11.17;5.87;;;;;;;22.96;74.04;99773.47;126377;1096;104149;-79
2021/08/30 08:29:31;;;;;;;10.27;5.33;;;;;;;23.03;73.40;99778.66;126316;1099;104162;-78
2021/08/30 08:32:02;;;;;;;11.23;5.63;;;;;;;23.03;72.63;99781.33;126324;1099;104297;-77
2021/08/30 08:34:33;;;;;;;9.53;5.23;;;;;;;23.02;72.95;99785.81;126325;1096;104169;-78
2021/08/30 08:37:06;;;;;;;11.07;5.33;;;;;;;23.07;72.65;99788.36;126285;1099;110431;-77
2021/08/30 08:39:39;;;;;;;8.83;4.93;;;;;;;23.11;72.82;99779.37;126356;1099;104616;-78
2021/08/30 08:42:10;;;;;;;8.57;5.33;;;;;;;23.16;72.56;99780.12;126337;1099;104158;-77
2021/08/30 08:44:41;;;;;;;12.87;5.50;;;;;;;23.30;72.90;99783.28;126322;1099;104886;-78
2021/08/30 08:47:15;;;;;;;8.50;5.00;;;;;;;23.46;72.54;99788.20;126241;1099;104185;-77
2021/08/30 08:49:51;;;;;;;9.33;4.40;;;;;;;23.48;71.02;99791.70;126320;1096;104190;-78
2021/08/30 08:52:23;;;;;;;7.67;4.27;;;;;;;23.53;71.14;99796.92;126310;1096;104166;-79
2021/08/30 08:54:57;;;;;;;7.70;4.27;;;;;;;23.64;70.75;99801.06;126377;1096;104210;-78
2021/08/30 08:57:28;;;;;;;;;;;;;;;23.64;69.58;99800.19;126395;1099;108000;-78
2021/08/30 09:00:05;;;;;;;6.33;4.30;;;;;;;23.57;68.46;99795.92;126306;1099;104188;-78
2021/08/30 09:02:37;;;;;;;9.63;4.40;;;;;;;23.54;68.98;99802.23;126270;1099;104242;-77
2021/08/30 09:05:22;;;;;;;9.47;4.20;;;;;;;23.58;68.90;99806.59;126281;1099;104149;-77
2021/08/30 09:07:58;;;;;;;5.80;3.80;;;;;;;23.68;69.00;99810.77;126368;1099;118509;-76
2021/08/30 09:10:47;;;;;;;9.97;4.03;;;;;;;23.69;67.48;99807.14;126306;1096;104348;-77
2021/08/30 09:13:26;;;;;;;5.57;3.70;;;;;;;23.67;67.88;99805.46;126329;1096;104721;-78
2021/08/30 09:15:57;;;;;;;4.97;3.60;;;;;;;23.67;66.71;99806.33;126254;1099;104188;-77
2021/08/30 09:18:33;;;;;;;6.47;4.13;;;;;;;23.75;67.25;99814.14;126335;1099;104146;-78
2021/08/30 09:21:12;;;;;;;6.07;3.80;;;;;;;23.83;66.33;99822.81;126342;1099;104200;-77
2021/08/30 09:23:45;;;;;;;4.90;3.60;;;;;;;23.86;66.91;99817.40;126246;1099;104321;-78
2021/08/30 09:26:22;;;;;;;9.38;4.10;;;;;;;23.79;65.24;99822.95;126291;1098;104137;-78
2021/08/30 09:28:55;;;;;;;7.33;4.03;;;;;;;23.73;64.73;99820.45;126344;1099;104160;-77
2021/08/30 09:31:26;;;;;;;9.33;3.80;;;;;;;23.74;65.32;99824.89;126402;1099;104159;-78
2021/08/30 09:33:57;;;;;;;7.77;4.03;;;;;;;23.71;64.69;99827.66;126375;1099;104185;-77
2021/08/30 09:36:29;;;;;;;6.93;4.17;;;;;;;23.72;64.27;99830.30;126229;1099;104152;-79
2021/08/30 09:39:02;;;;;;;5.97;4.10;;;;;;;23.76;64.63;99836.43;126360;1099;104198;-77
2021/08/30 09:41:36;;;;;;;6.37;4.30;;;;;;;23.82;64.37;99828.22;126356;1099;104219;-77
2021/08/30 09:44:08;;;;;;;6.83;3.87;;;;;;;23.82;64.10;99833.58;126313;1099;104156;-77
2021/08/30 09:46:39;;;;;;;9.47;4.27;;;;;;;23.82;63.46;99833.58;126287;1099;104198;-77
2021/08/30 09:49:11;;;;;;;6.30;4.03;;;;;;;23.84;63.05;99839.78;126316;1099;104300;-78
2021/08/30 09:51:42;;;;;;;8.83;4.17;;;;;;;23.89;62.50;99837.88;126349;1099;104188;-78
2021/08/30 09:54:18;;;;;;;8.87;4.47;;;;;;;23.88;62.85;99844.14;126304;1099;104149;-78
2021/08/30 09:56:49;;;;;;;8.30;4.17;;;;;;;23.93;62.42;99852.05;126314;1099;104134;-77
2021/08/30 09:59:22;;;;;;;6.70;3.93;;;;;;;23.92;62.01;99861.89;126281;1099;104137;-78
2021/08/30 10:01:55;;;;;;;7.53;4.10;;;;;;;23.81;62.24;99861.27;126206;1099;104137;-77
2021/08/30 10:04:27;;;;;;;9.13;4.53;;;;;;;23.65;61.73;99864.42;126370;1099;104133;-76
2021/08/30 10:06:59;;;;;;;8.25;4.12;;;;;;;23.63;61.92;99862.70;126280;1099;104198;-77
2021/08/30 10:09:30;;;;;;;7.03;4.40;;;;;;;23.61;61.99;99852.03;126341;1099;104184;-78
2021/08/30 10:12:03;;;;;;;7.57;4.30;;;;;;;23.52;61.91;99836.22;126325;1099;104163;-79
2021/08/30 10:14:35;;;;;;;7.67;4.37;;;;;;;23.50;62.24;99840.75;126321;1099;104296;-78
2021/08/30 10:17:06;;;;;;;7.30;4.47;;;;;;;23.55;61.60;99852.20;126318;1099;104149;-77
2021/08/30 10:19:39;;;;;;;6.53;3.93;;;;;;;23.46;61.09;99863.16;126309;1098;104165;-78
2021/08/30 10:22:19;;;;;;;9.20;4.17;;;;;;;23.30;61.25;99860.91;126344;1099;104168;-77
2021/08/30 10:24:52;;;;;;;7.27;4.47;;;;;;;23.22;61.31;99862.91;126331;1099;104219;-79
2021/08/30 10:27:34;;;;;;;7.93;4.50;;;;;;;23.23;62.04;99880.70;126276;1099;104223;-78
2021/08/30 10:30:11;;;;;;;7.63;4.40;;;;;;;23.23;61.92;99883.38;126376;1096;104692;-77
2021/08/30 10:32:45;;;;;;;9.43;4.53;;;;;;;23.25;61.64;99881.56;126334;1099;104149;-77
2021/08/30 10:35:19;;;;;;;8.28;4.70;;;;;;;23.32;62.38;99884.95;126375;1096;104284;-78
2021/08/30 10:37:53;;;;;;;7.67;4.73;;;;;;;23.34;62.13;99880.42;126194;1099;104137;-77
2021/08/30 10:40:26;;;;;;;7.27;4.70;;;;;;;23.30;62.16;99876.96;126275;1098;104136;-78
2021/08/30 10:43:10;;;;;;;7.50;4.60;;;;;;;23.25;61.98;99873.54;126102;1099;104270;-78
2021/08/30 10:45:42;;;;;;;;;;;;;;;23.22;62.42;99872.72;126153;1099;104742;-77
2021/08/30 10:48:18;;;;;;;10.97;4.70;;;;;;;23.17;62.56;99890.70;126239;1096;104140;-79
2021/08/30 10:50:51;;;;;;;8.50;4.83;;;;;;;23.30;62.54;99889.48;126376;1096;104694;-79
2021/08/30 10:53:25;;;;;;;7.37;4.62;;;;;;;23.56;62.04;99888.78;126373;1096;104127;-77
2021/08/30 10:56:02;;;;;;;8.30;4.50;;;;;;;23.77;62.24;99878.37;126340;1096;104163;-79
2021/08/30 10:58:36;;;;;;;8.70;4.60;;;;;;;23.90;62.09;99877.11;126297;1096;104644;-76
2021/08/30 11:01:14;;;;;;;8.00;4.50;;;;;;;23.94;61.67;99891.32;126304;1099;104147;-78
2021/08/30 11:03:56;;;;;;;12.30;4.95;;;;;;;23.91;62.18;99870.84;126355;1099;104185;-78
2021/08/30 11:06:28;;;;;;;9.07;4.50;;;;;;;23.91;62.24;99873.52;126319;1096;104153;-77
2021/08/30 11:08:58;;;;;;;9.37;4.57;;;;;;;23.91;61.93;99873.52;126332;1096;104172;-78
2021/08/30 11:11:31;;;;;;;6.67;4.40;;;;;;;23.86;62.34;99864.75;126357;1096;104172;-78
2021/08/30 11:14:05;;;;;;;7.07;4.57;;;;;;;23.80;62.26;99871.13;126359;1096;104130;-78
2021/08/30 11:16:38;;;;;;;7.63;4.40;;;;;;;23.91;62.02;99880.69;126310;1096;104191;-78
2021/08/30 11:19:09;;;;;;;;;;;;;;;23.88;61.61;99878.97;126325;1096;104136;-76
2021/08/30 11:21:46;;;;;;;8.47;4.77;;;;;;;23.91;61.90;99878.88;126303;1099;104169;-79
2021/08/30 11:24:30;;;;;;;9.83;4.80;;;;;;;23.87;61.26;99877.20;126327;1097;104162;-78
2021/08/30 11:27:07;;;;;;;9.53;4.60;;;;;;;23.79;61.38;99880.07;126387;1099;104163;-78
2021/08/30 11:29:44;;;;;;;8.10;4.60;;;;;;;23.70;62.17;99893.75;126282;1098;104216;-78
2021/08/30 11:32:17;;;;;;;7.63;4.57;;;;;;;23.61;61.71;99884.16;126275;1099;104369;-79
2021/08/30 11:34:49;;;;;;;7.47;4.53;;;;;;;23.60;61.98;99894.92;126375;1098;104133;-76
2021/08/30 11:37:23;;;;;;;7.67;5.00;;;;;;;23.61;61.97;99886.84;126345;1099;104172;-77